sensor_id;sensor_type;location;lat;lon;timestamp;P1;durP1;ratioP1;P2;durP2;ratioP2
48002;SDS011;33768;48.578;11.574;2023-03-24T00:02:34;4.00;;;3.23;;
48002;SDS011;33768;48.578;11.574;2023-03-24T00:05:40;5.03;;;3.10;;
48002;SDS011;33768;48.578;11.574;2023-03-24T00:08:44;6.63;;;3.60;;
48002;SDS011;33768;48.578;11.574;2023-03-24T00:11:50;4.87;;;2.90;;
48002;SDS011;33768;48.578;11.574;2023-03-24T00:14:55;5.67;;;3.60;;
48002;SDS011;33768;48.578;11.574;2023-03-24T00:17:58;5.93;;;3.40;;
48002;SDS011;33768;48.578;11.574;2023-03-24T00:21:03;6.07;;;3.23;;
48002;SDS011;33768;48.578;11.574;2023-03-24T00:24:09;3.47;;;3.10;;
48002;SDS011;33768;48.578;11.574;2023-03-24T00:27:14;3.83;;;3.10;;
48002;SDS011;33768;48.578;11.574;2023-03-24T00:30:20;4.13;;;3.17;;
48002;SDS011;33768;48.578;11.574;2023-03-24T00:33:24;5.33;;;2.80;;
48002;SDS011;33768;48.578;11.574;2023-03-24T00:36:28;5.57;;;3.27;;
48002;SDS011;33768;48.578;11.574;2023-03-24T00:39:33;4.50;;;3.20;;
48002;SDS011;33768;48.578;11.574;2023-03-24T00:42:37;7.23;;;3.00;;
48002;SDS011;33768;48.578;11.574;2023-03-24T00:45:43;4.53;;;3.10;;
48002;SDS011;33768;48.578;11.574;2023-03-24T00:48:50;4.67;;;3.17;;
48002;SDS011;33768;48.578;11.574;2023-03-24T00:51:56;4.03;;;3.13;;
48002;SDS011;33768;48.578;11.574;2023-03-24T00:55:01;5.80;;;3.03;;
48002;SDS011;33768;48.578;11.574;2023-03-24T00:58:07;4.77;;;3.40;;
48002;SDS011;33768;48.578;11.574;2023-03-24T01:01:11;5.33;;;3.30;;
48002;SDS011;33768;48.578;11.574;2023-03-24T01:04:16;4.33;;;2.97;;
48002;SDS011;33768;48.578;11.574;2023-03-24T01:07:20;4.87;;;3.10;;
48002;SDS011;33768;48.578;11.574;2023-03-24T01:10:25;3.90;;;2.90;;
48002;SDS011;33768;48.578;11.574;2023-03-24T01:13:29;5.43;;;3.40;;
48002;SDS011;33768;48.578;11.574;2023-03-24T01:16:33;4.00;;;3.27;;
48002;SDS011;33768;48.578;11.574;2023-03-24T01:19:38;3.83;;;2.87;;
48002;SDS011;33768;48.578;11.574;2023-03-24T01:22:43;6.73;;;3.00;;
48002;SDS011;33768;48.578;11.574;2023-03-24T01:25:49;3.93;;;2.73;;
48002;SDS011;33768;48.578;11.574;2023-03-24T01:28:54;3.50;;;2.87;;
48002;SDS011;33768;48.578;11.574;2023-03-24T01:31:58;4.40;;;3.00;;
48002;SDS011;33768;48.578;11.574;2023-03-24T01:35:02;3.93;;;2.50;;
48002;SDS011;33768;48.578;11.574;2023-03-24T01:38:06;5.13;;;2.80;;
48002;SDS011;33768;48.578;11.574;2023-03-24T01:41:12;9.00;;;3.23;;
48002;SDS011;33768;48.578;11.574;2023-03-24T01:47:28;3.23;;;2.60;;
48002;SDS011;33768;48.578;11.574;2023-03-24T01:50:32;3.33;;;2.70;;
48002;SDS011;33768;48.578;11.574;2023-03-24T01:53:37;4.17;;;2.80;;
48002;SDS011;33768;48.578;11.574;2023-03-24T01:56:48;3.93;;;2.90;;
48002;SDS011;33768;48.578;11.574;2023-03-24T01:59:57;6.80;;;2.80;;
48002;SDS011;33768;48.578;11.574;2023-03-24T02:03:28;4.63;;;3.07;;
48002;SDS011;33768;48.578;11.574;2023-03-24T02:06:37;5.40;;;3.37;;
48002;SDS011;33768;48.578;11.574;2023-03-24T02:09:43;5.23;;;3.40;;
48002;SDS011;33768;48.578;11.574;2023-03-24T02:12:48;4.93;;;3.07;;
48002;SDS011;33768;48.578;11.574;2023-03-24T02:16:06;5.33;;;3.33;;
48002;SDS011;33768;48.578;11.574;2023-03-24T02:43:04;5.30;;;3.40;;
48002;SDS011;33768;48.578;11.574;2023-03-24T02:46:37;4.33;;;3.30;;
48002;SDS011;33768;48.578;11.574;2023-03-24T02:50:01;4.87;;;3.67;;
48002;SDS011;33768;48.578;11.574;2023-03-24T02:53:19;7.03;;;3.60;;
48002;SDS011;33768;48.578;11.574;2023-03-24T02:57:19;6.73;;;3.83;;
48002;SDS011;33768;48.578;11.574;2023-03-24T03:00:57;4.87;;;3.80;;
48002;SDS011;33768;48.578;11.574;2023-03-24T03:04:28;4.63;;;3.67;;
48002;SDS011;33768;48.578;11.574;2023-03-24T03:07:35;4.40;;;3.30;;
48002;SDS011;33768;48.578;11.574;2023-03-24T03:10:41;4.70;;;3.70;;
48002;SDS011;33768;48.578;11.574;2023-03-24T03:13:48;3.60;;;3.00;;
48002;SDS011;33768;48.578;11.574;2023-03-24T03:16:58;4.63;;;3.10;;
48002;SDS011;33768;48.578;11.574;2023-03-24T03:20:13;4.77;;;3.47;;
48002;SDS011;33768;48.578;11.574;2023-03-24T03:23:22;4.17;;;3.20;;
48002;SDS011;33768;48.578;11.574;2023-03-24T03:26:32;5.37;;;3.33;;
48002;SDS011;33768;48.578;11.574;2023-03-24T03:29:37;4.43;;;3.03;;
48002;SDS011;33768;48.578;11.574;2023-03-24T03:32:48;8.27;;;3.30;;
48002;SDS011;33768;48.578;11.574;2023-03-24T03:36:02;4.20;;;3.50;;
48002;SDS011;33768;48.578;11.574;2023-03-24T03:39:14;4.80;;;3.50;;
48002;SDS011;33768;48.578;11.574;2023-03-24T03:42:22;6.43;;;3.30;;
48002;SDS011;33768;48.578;11.574;2023-03-24T03:45:27;4.47;;;3.50;;
48002;SDS011;33768;48.578;11.574;2023-03-24T03:48:32;3.80;;;3.40;;
48002;SDS011;33768;48.578;11.574;2023-03-24T03:51:37;4.80;;;3.60;;
48002;SDS011;33768;48.578;11.574;2023-03-24T03:54:41;6.10;;;3.60;;
48002;SDS011;33768;48.578;11.574;2023-03-24T03:57:46;4.50;;;3.70;;
48002;SDS011;33768;48.578;11.574;2023-03-24T04:01:11;4.60;;;3.40;;
48002;SDS011;33768;48.578;11.574;2023-03-24T04:22:43;3.73;;;2.70;;
48002;SDS011;33768;48.578;11.574;2023-03-24T04:29:23;3.53;;;2.93;;
48002;SDS011;33768;48.578;11.574;2023-03-24T04:36:09;4.63;;;3.27;;
48002;SDS011;33768;48.578;11.574;2023-03-24T04:39:32;7.63;;;3.30;;
48002;SDS011;33768;48.578;11.574;2023-03-24T04:42:45;3.87;;;2.90;;
48002;SDS011;33768;48.578;11.574;2023-03-24T04:45:55;4.17;;;3.00;;
48002;SDS011;33768;48.578;11.574;2023-03-24T04:49:19;3.73;;;3.20;;
48002;SDS011;33768;48.578;11.574;2023-03-24T04:52:24;3.83;;;3.10;;
48002;SDS011;33768;48.578;11.574;2023-03-24T04:55:50;4.70;;;3.40;;
48002;SDS011;33768;48.578;11.574;2023-03-24T04:59:26;5.70;;;2.93;;
48002;SDS011;33768;48.578;11.574;2023-03-24T05:02:37;4.27;;;3.33;;
48002;SDS011;33768;48.578;11.574;2023-03-24T05:05:45;6.17;;;3.37;;
48002;SDS011;33768;48.578;11.574;2023-03-24T05:08:51;3.97;;;2.83;;
48002;SDS011;33768;48.578;11.574;2023-03-24T05:11:56;6.07;;;3.53;;
48002;SDS011;33768;48.578;11.574;2023-03-24T05:15:01;4.23;;;3.20;;
48002;SDS011;33768;48.578;11.574;2023-03-24T05:18:06;5.37;;;3.30;;
48002;SDS011;33768;48.578;11.574;2023-03-24T05:21:11;4.47;;;3.20;;
48002;SDS011;33768;48.578;11.574;2023-03-24T05:24:15;6.97;;;3.77;;
48002;SDS011;33768;48.578;11.574;2023-03-24T05:27:20;3.87;;;3.07;;
48002;SDS011;33768;48.578;11.574;2023-03-24T05:30:24;4.30;;;3.07;;
48002;SDS011;33768;48.578;11.574;2023-03-24T05:33:33;4.40;;;3.20;;
48002;SDS011;33768;48.578;11.574;2023-03-24T05:36:38;5.37;;;3.57;;
48002;SDS011;33768;48.578;11.574;2023-03-24T05:39:43;7.43;;;3.80;;
48002;SDS011;33768;48.578;11.574;2023-03-24T05:43:06;3.97;;;3.07;;
48002;SDS011;33768;48.578;11.574;2023-03-24T05:46:16;7.50;;;3.20;;
48002;SDS011;33768;48.578;11.574;2023-03-24T05:49:22;5.23;;;3.70;;
48002;SDS011;33768;48.578;11.574;2023-03-24T05:52:26;9.53;;;3.67;;
48002;SDS011;33768;48.578;11.574;2023-03-24T05:55:39;6.10;;;4.10;;
48002;SDS011;33768;48.578;11.574;2023-03-24T05:59:03;4.30;;;3.77;;
48002;SDS011;33768;48.578;11.574;2023-03-24T06:02:34;4.67;;;3.70;;
48002;SDS011;33768;48.578;11.574;2023-03-24T06:05:43;6.23;;;3.97;;
48002;SDS011;33768;48.578;11.574;2023-03-24T06:08:48;5.20;;;3.87;;
48002;SDS011;33768;48.578;11.574;2023-03-24T06:11:54;4.87;;;3.73;;
48002;SDS011;33768;48.578;11.574;2023-03-24T06:14:59;5.37;;;4.03;;
48002;SDS011;33768;48.578;11.574;2023-03-24T06:18:04;5.53;;;3.87;;
48002;SDS011;33768;48.578;11.574;2023-03-24T06:21:11;5.43;;;3.83;;
48002;SDS011;33768;48.578;11.574;2023-03-24T06:24:17;5.67;;;4.20;;
48002;SDS011;33768;48.578;11.574;2023-03-24T06:27:22;6.23;;;4.33;;
48002;SDS011;33768;48.578;11.574;2023-03-24T06:30:30;6.90;;;3.97;;
48002;SDS011;33768;48.578;11.574;2023-03-24T06:33:33;6.27;;;4.27;;
48002;SDS011;33768;48.578;11.574;2023-03-24T06:36:37;6.23;;;3.80;;
48002;SDS011;33768;48.578;11.574;2023-03-24T06:39:43;4.80;;;3.73;;
48002;SDS011;33768;48.578;11.574;2023-03-24T06:42:49;8.37;;;4.20;;
48002;SDS011;33768;48.578;11.574;2023-03-24T06:45:55;6.23;;;4.77;;
48002;SDS011;33768;48.578;11.574;2023-03-24T06:49:00;6.90;;;4.07;;
48002;SDS011;33768;48.578;11.574;2023-03-24T06:52:05;3.57;;;3.23;;
48002;SDS011;33768;48.578;11.574;2023-03-24T06:55:13;4.57;;;4.00;;
48002;SDS011;33768;48.578;11.574;2023-03-24T06:58:17;6.33;;;3.93;;
48002;SDS011;33768;48.578;11.574;2023-03-24T07:01:30;5.23;;;3.80;;
48002;SDS011;33768;48.578;11.574;2023-03-24T07:04:42;4.70;;;3.47;;
48002;SDS011;33768;48.578;11.574;2023-03-24T07:08:03;5.70;;;3.63;;
48002;SDS011;33768;48.578;11.574;2023-03-24T07:11:15;4.63;;;3.60;;
48002;SDS011;33768;48.578;11.574;2023-03-24T07:14:30;4.67;;;3.40;;
48002;SDS011;33768;48.578;11.574;2023-03-24T07:17:35;4.30;;;3.40;;
48002;SDS011;33768;48.578;11.574;2023-03-24T07:20:53;5.23;;;3.57;;
48002;SDS011;33768;48.578;11.574;2023-03-24T07:23:59;5.90;;;3.90;;
48002;SDS011;33768;48.578;11.574;2023-03-24T07:27:11;3.80;;;3.37;;
48002;SDS011;33768;48.578;11.574;2023-03-24T07:30:15;4.20;;;3.27;;
48002;SDS011;33768;48.578;11.574;2023-03-24T07:33:21;3.47;;;2.83;;
48002;SDS011;33768;48.578;11.574;2023-03-24T07:36:27;5.87;;;3.37;;
48002;SDS011;33768;48.578;11.574;2023-03-24T07:39:33;4.23;;;2.93;;
48002;SDS011;33768;48.578;11.574;2023-03-24T07:42:40;3.70;;;3.10;;
48002;SDS011;33768;48.578;11.574;2023-03-24T07:46:09;5.17;;;3.23;;
48002;SDS011;33768;48.578;11.574;2023-03-24T07:49:13;3.50;;;3.20;;
48002;SDS011;33768;48.578;11.574;2023-03-24T07:52:18;5.10;;;3.90;;
48002;SDS011;33768;48.578;11.574;2023-03-24T07:55:26;4.30;;;3.57;;
48002;SDS011;33768;48.578;11.574;2023-03-24T07:58:34;5.00;;;3.70;;
48002;SDS011;33768;48.578;11.574;2023-03-24T08:01:59;5.37;;;4.33;;
48002;SDS011;33768;48.578;11.574;2023-03-24T08:05:22;6.37;;;4.03;;
48002;SDS011;33768;48.578;11.574;2023-03-24T08:08:47;5.53;;;4.20;;
48002;SDS011;33768;48.578;11.574;2023-03-24T08:11:52;6.07;;;4.47;;
48002;SDS011;33768;48.578;11.574;2023-03-24T08:14:56;5.93;;;4.17;;
48002;SDS011;33768;48.578;11.574;2023-03-24T08:18:00;4.90;;;4.40;;
48002;SDS011;33768;48.578;11.574;2023-03-24T08:21:04;5.57;;;4.27;;
48002;SDS011;33768;48.578;11.574;2023-03-24T08:24:09;4.57;;;3.97;;
48002;SDS011;33768;48.578;11.574;2023-03-24T08:27:13;5.17;;;3.90;;
48002;SDS011;33768;48.578;11.574;2023-03-24T08:30:21;7.60;;;3.87;;
48002;SDS011;33768;48.578;11.574;2023-03-24T08:33:27;5.50;;;4.10;;
48002;SDS011;33768;48.578;11.574;2023-03-24T08:36:32;3.80;;;3.40;;
48002;SDS011;33768;48.578;11.574;2023-03-24T08:39:36;7.73;;;3.83;;
48002;SDS011;33768;48.578;11.574;2023-03-24T08:42:40;5.33;;;3.90;;
48002;SDS011;33768;48.578;11.574;2023-03-24T08:45:44;5.43;;;3.80;;
48002;SDS011;33768;48.578;11.574;2023-03-24T08:48:49;5.80;;;3.67;;
48002;SDS011;33768;48.578;11.574;2023-03-24T08:51:53;8.33;;;3.60;;
48002;SDS011;33768;48.578;11.574;2023-03-24T08:54:57;7.00;;;4.30;;
48002;SDS011;33768;48.578;11.574;2023-03-24T08:58:01;6.17;;;3.80;;
48002;SDS011;33768;48.578;11.574;2023-03-24T09:01:06;4.27;;;3.70;;
48002;SDS011;33768;48.578;11.574;2023-03-24T09:04:10;6.03;;;3.63;;
48002;SDS011;33768;48.578;11.574;2023-03-24T09:07:14;5.00;;;3.37;;
48002;SDS011;33768;48.578;11.574;2023-03-24T09:10:19;6.23;;;3.67;;
48002;SDS011;33768;48.578;11.574;2023-03-24T09:13:25;5.10;;;3.67;;
48002;SDS011;33768;48.578;11.574;2023-03-24T09:16:29;4.60;;;3.70;;
48002;SDS011;33768;48.578;11.574;2023-03-24T09:19:33;3.27;;;2.80;;
48002;SDS011;33768;48.578;11.574;2023-03-24T09:22:38;4.50;;;3.50;;
48002;SDS011;33768;48.578;11.574;2023-03-24T09:25:44;4.40;;;3.23;;
48002;SDS011;33768;48.578;11.574;2023-03-24T09:28:48;3.87;;;3.10;;
48002;SDS011;33768;48.578;11.574;2023-03-24T09:31:52;6.47;;;3.43;;
48002;SDS011;33768;48.578;11.574;2023-03-24T09:34:56;4.63;;;3.17;;
48002;SDS011;33768;48.578;11.574;2023-03-24T09:38:00;4.27;;;2.87;;
48002;SDS011;33768;48.578;11.574;2023-03-24T09:41:10;3.10;;;2.70;;
48002;SDS011;33768;48.578;11.574;2023-03-24T09:47:37;3.47;;;2.50;;
48002;SDS011;33768;48.578;11.574;2023-03-24T09:54:10;2.53;;;2.33;;
48002;SDS011;33768;48.578;11.574;2023-03-24T09:57:33;4.93;;;2.57;;
48002;SDS011;33768;48.578;11.574;2023-03-24T10:00:42;5.10;;;2.73;;
48002;SDS011;33768;48.578;11.574;2023-03-24T10:03:48;3.07;;;2.50;;
48002;SDS011;33768;48.578;11.574;2023-03-24T10:14:14;3.63;;;2.47;;
48002;SDS011;33768;48.578;11.574;2023-03-24T10:17:59;5.50;;;2.70;;
48002;SDS011;33768;48.578;11.574;2023-03-24T10:24:18;3.90;;;2.60;;
48002;SDS011;33768;48.578;11.574;2023-03-24T10:27:50;3.10;;;2.70;;
48002;SDS011;33768;48.578;11.574;2023-03-24T10:31:01;3.63;;;2.53;;
48002;SDS011;33768;48.578;11.574;2023-03-24T10:34:11;3.33;;;2.30;;
48002;SDS011;33768;48.578;11.574;2023-03-24T10:37:15;4.57;;;1.83;;
48002;SDS011;33768;48.578;11.574;2023-03-24T10:40:21;3.03;;;2.13;;
48002;SDS011;33768;48.578;11.574;2023-03-24T10:43:30;2.30;;;2.00;;
48002;SDS011;33768;48.578;11.574;2023-03-24T10:46:35;5.00;;;2.20;;
48002;SDS011;33768;48.578;11.574;2023-03-24T10:50:04;2.30;;;1.90;;
48002;SDS011;33768;48.578;11.574;2023-03-24T10:53:15;2.90;;;2.03;;
48002;SDS011;33768;48.578;11.574;2023-03-24T10:56:36;3.93;;;1.87;;
48002;SDS011;33768;48.578;11.574;2023-03-24T11:03:00;2.27;;;1.80;;
48002;SDS011;33768;48.578;11.574;2023-03-24T11:06:11;2.87;;;1.87;;
48002;SDS011;33768;48.578;11.574;2023-03-24T11:09:20;2.67;;;2.03;;
48002;SDS011;33768;48.578;11.574;2023-03-24T11:12:29;3.23;;;2.30;;
48002;SDS011;33768;48.578;11.574;2023-03-24T11:15:35;2.87;;;2.13;;
48002;SDS011;33768;48.578;11.574;2023-03-24T11:22:00;3.07;;;2.67;;
48002;SDS011;33768;48.578;11.574;2023-03-24T11:25:07;5.37;;;2.60;;
48002;SDS011;33768;48.578;11.574;2023-03-24T11:28:16;3.50;;;2.90;;
48002;SDS011;33768;48.578;11.574;2023-03-24T11:31:26;2.53;;;2.30;;
48002;SDS011;33768;48.578;11.574;2023-03-24T11:34:34;3.23;;;2.70;;
48002;SDS011;33768;48.578;11.574;2023-03-24T11:37:45;4.47;;;2.80;;
48002;SDS011;33768;48.578;11.574;2023-03-24T11:40:53;3.50;;;2.30;;
48002;SDS011;33768;48.578;11.574;2023-03-24T11:44:17;3.00;;;2.10;;
48002;SDS011;33768;48.578;11.574;2023-03-24T11:47:31;2.40;;;1.90;;
48002;SDS011;33768;48.578;11.574;2023-03-24T11:50:38;2.17;;;1.80;;
48002;SDS011;33768;48.578;11.574;2023-03-24T11:53:45;1.70;;;1.60;;
48002;SDS011;33768;48.578;11.574;2023-03-24T11:56:53;2.73;;;1.50;;
48002;SDS011;33768;48.578;11.574;2023-03-24T12:00:03;1.57;;;1.23;;
48002;SDS011;33768;48.578;11.574;2023-03-24T12:13:35;1.43;;;1.30;;
48002;SDS011;33768;48.578;11.574;2023-03-24T12:17:00;1.67;;;1.40;;
48002;SDS011;33768;48.578;11.574;2023-03-24T12:26:49;3.63;;;1.60;;
48002;SDS011;33768;48.578;11.574;2023-03-24T12:30:01;1.67;;;1.30;;
48002;SDS011;33768;48.578;11.574;2023-03-24T12:33:18;2.80;;;1.60;;
48002;SDS011;33768;48.578;11.574;2023-03-24T12:39:53;1.97;;;1.57;;
48002;SDS011;33768;48.578;11.574;2023-03-24T12:50:12;4.80;;;1.90;;
48002;SDS011;33768;48.578;11.574;2023-03-24T12:53:30;2.10;;;1.90;;
48002;SDS011;33768;48.578;11.574;2023-03-24T12:56:49;2.40;;;1.87;;
48002;SDS011;33768;48.578;11.574;2023-03-24T13:00:00;3.10;;;1.97;;
48002;SDS011;33768;48.578;11.574;2023-03-24T13:03:10;3.37;;;2.00;;
48002;SDS011;33768;48.578;11.574;2023-03-24T13:06:22;3.67;;;1.80;;
48002;SDS011;33768;48.578;11.574;2023-03-24T13:10:32;9.33;;;1.77;;
48002;SDS011;33768;48.578;11.574;2023-03-24T13:16:28;2.33;;;1.67;;
48002;SDS011;33768;48.578;11.574;2023-03-24T13:19:38;2.43;;;1.63;;
48002;SDS011;33768;48.578;11.574;2023-03-24T13:22:44;1.90;;;1.70;;
48002;SDS011;33768;48.578;11.574;2023-03-24T13:32:36;1.77;;;1.47;;
48002;SDS011;33768;48.578;11.574;2023-03-24T13:36:19;2.07;;;1.10;;
48002;SDS011;33768;48.578;11.574;2023-03-24T13:39:37;1.00;;;0.80;;
48002;SDS011;33768;48.578;11.574;2023-03-24T13:42:42;2.40;;;0.90;;
48002;SDS011;33768;48.578;11.574;2023-03-24T13:45:51;2.93;;;0.83;;
48002;SDS011;33768;48.578;11.574;2023-03-24T13:49:03;10.60;;;1.57;;
48002;SDS011;33768;48.578;11.574;2023-03-24T13:52:19;6.67;;;1.07;;
48002;SDS011;33768;48.578;11.574;2023-03-24T13:55:48;9.93;;;0.97;;
48002;SDS011;33768;48.578;11.574;2023-03-24T14:05:33;2.20;;;0.90;;
48002;SDS011;33768;48.578;11.574;2023-03-24T14:15:15;0.93;;;0.70;;
48002;SDS011;33768;48.578;11.574;2023-03-24T14:21:28;0.80;;;0.60;;
48002;SDS011;33768;48.578;11.574;2023-03-24T14:24:34;0.73;;;0.50;;
48002;SDS011;33768;48.578;11.574;2023-03-24T14:27:46;0.60;;;0.60;;
48002;SDS011;33768;48.578;11.574;2023-03-24T14:31:02;1.23;;;0.80;;
48002;SDS011;33768;48.578;11.574;2023-03-24T14:34:18;1.07;;;0.70;;
48002;SDS011;33768;48.578;11.574;2023-03-24T14:37:25;1.60;;;0.93;;
48002;SDS011;33768;48.578;11.574;2023-03-24T14:46:47;1.17;;;0.67;;
48002;SDS011;33768;48.578;11.574;2023-03-24T14:49:53;2.67;;;1.00;;
48002;SDS011;33768;48.578;11.574;2023-03-24T14:52:59;0.80;;;0.80;;
48002;SDS011;33768;48.578;11.574;2023-03-24T14:56:05;0.77;;;0.70;;
48002;SDS011;33768;48.578;11.574;2023-03-24T15:02:50;1.70;;;0.60;;
48002;SDS011;33768;48.578;11.574;2023-03-24T15:09:34;0.83;;;0.73;;
48002;SDS011;33768;48.578;11.574;2023-03-24T15:12:42;1.73;;;0.70;;
48002;SDS011;33768;48.578;11.574;2023-03-24T15:15:49;0.70;;;0.63;;
48002;SDS011;33768;48.578;11.574;2023-03-24T15:19:39;0.63;;;0.60;;
48002;SDS011;33768;48.578;11.574;2023-03-24T15:22:18;0.53;;;0.53;;
48002;SDS011;33768;48.578;11.574;2023-03-24T15:25:27;1.47;;;1.00;;
48002;SDS011;33768;48.578;11.574;2023-03-24T15:28:31;1.10;;;0.60;;
48002;SDS011;33768;48.578;11.574;2023-03-24T15:31:36;0.93;;;0.70;;
48002;SDS011;33768;48.578;11.574;2023-03-24T15:34:40;0.70;;;0.60;;
48002;SDS011;33768;48.578;11.574;2023-03-24T15:37:50;0.80;;;0.60;;
48002;SDS011;33768;48.578;11.574;2023-03-24T15:40:59;0.77;;;0.67;;
48002;SDS011;33768;48.578;11.574;2023-03-24T15:44:07;1.00;;;0.67;;
48002;SDS011;33768;48.578;11.574;2023-03-24T15:47:21;1.30;;;0.63;;
48002;SDS011;33768;48.578;11.574;2023-03-24T15:53:46;0.73;;;0.70;;
48002;SDS011;33768;48.578;11.574;2023-03-24T15:56:59;0.83;;;0.60;;
48002;SDS011;33768;48.578;11.574;2023-03-24T16:00:16;0.80;;;0.70;;
48002;SDS011;33768;48.578;11.574;2023-03-24T16:03:26;1.67;;;0.80;;
48002;SDS011;33768;48.578;11.574;2023-03-24T16:06:33;0.70;;;0.60;;
48002;SDS011;33768;48.578;11.574;2023-03-24T16:09:39;1.37;;;0.67;;
48002;SDS011;33768;48.578;11.574;2023-03-24T16:12:43;1.73;;;0.83;;
48002;SDS011;33768;48.578;11.574;2023-03-24T16:15:52;0.60;;;0.50;;
48002;SDS011;33768;48.578;11.574;2023-03-24T16:19:00;0.77;;;0.63;;
48002;SDS011;33768;48.578;11.574;2023-03-24T16:22:09;1.03;;;0.77;;
48002;SDS011;33768;48.578;11.574;2023-03-24T16:25:14;1.70;;;0.77;;
48002;SDS011;33768;48.578;11.574;2023-03-24T16:28:19;0.80;;;0.80;;
48002;SDS011;33768;48.578;11.574;2023-03-24T16:31:26;1.20;;;0.57;;
48002;SDS011;33768;48.578;11.574;2023-03-24T16:34:36;0.97;;;0.77;;
48002;SDS011;33768;48.578;11.574;2023-03-24T16:37:40;0.73;;;0.60;;
48002;SDS011;33768;48.578;11.574;2023-03-24T16:40:45;1.20;;;0.80;;
48002;SDS011;33768;48.578;11.574;2023-03-24T16:43:52;1.30;;;0.70;;
48002;SDS011;33768;48.578;11.574;2023-03-24T16:46:57;1.30;;;0.97;;
48002;SDS011;33768;48.578;11.574;2023-03-24T16:50:13;1.20;;;1.07;;
48002;SDS011;33768;48.578;11.574;2023-03-24T16:53:27;0.50;;;0.50;;
48002;SDS011;33768;48.578;11.574;2023-03-24T16:56:32;1.63;;;0.60;;
48002;SDS011;33768;48.578;11.574;2023-03-24T16:59:36;0.90;;;0.80;;
48002;SDS011;33768;48.578;11.574;2023-03-24T17:02:40;0.70;;;0.60;;
48002;SDS011;33768;48.578;11.574;2023-03-24T17:05:50;0.70;;;0.70;;
48002;SDS011;33768;48.578;11.574;2023-03-24T17:08:55;0.80;;;0.70;;
48002;SDS011;33768;48.578;11.574;2023-03-24T17:11:59;0.87;;;0.70;;
48002;SDS011;33768;48.578;11.574;2023-03-24T17:15:05;2.60;;;0.77;;
48002;SDS011;33768;48.578;11.574;2023-03-24T17:18:10;0.70;;;0.70;;
48002;SDS011;33768;48.578;11.574;2023-03-24T17:21:17;0.97;;;0.80;;
48002;SDS011;33768;48.578;11.574;2023-03-24T17:24:22;1.37;;;0.90;;
48002;SDS011;33768;48.578;11.574;2023-03-24T17:27:28;2.60;;;0.90;;
48002;SDS011;33768;48.578;11.574;2023-03-24T17:30:33;1.53;;;0.70;;
48002;SDS011;33768;48.578;11.574;2023-03-24T17:33:37;1.13;;;0.80;;
48002;SDS011;33768;48.578;11.574;2023-03-24T17:36:41;1.03;;;0.90;;
48002;SDS011;33768;48.578;11.574;2023-03-24T17:39:45;1.50;;;0.80;;
48002;SDS011;33768;48.578;11.574;2023-03-24T17:42:50;1.00;;;0.90;;
48002;SDS011;33768;48.578;11.574;2023-03-24T17:45:57;0.67;;;0.67;;
48002;SDS011;33768;48.578;11.574;2023-03-24T17:49:02;1.30;;;0.90;;
48002;SDS011;33768;48.578;11.574;2023-03-24T17:52:07;1.03;;;0.87;;
48002;SDS011;33768;48.578;11.574;2023-03-24T17:55:12;3.37;;;2.60;;
48002;SDS011;33768;48.578;11.574;2023-03-24T17:58:18;1.87;;;1.30;;
48002;SDS011;33768;48.578;11.574;2023-03-24T18:01:23;1.30;;;1.10;;
48002;SDS011;33768;48.578;11.574;2023-03-24T18:04:27;3.70;;;1.07;;
48002;SDS011;33768;48.578;11.574;2023-03-24T18:07:32;1.43;;;1.10;;
48002;SDS011;33768;48.578;11.574;2023-03-24T18:10:36;1.43;;;1.20;;
48002;SDS011;33768;48.578;11.574;2023-03-24T18:13:41;1.90;;;1.60;;
48002;SDS011;33768;48.578;11.574;2023-03-24T18:16:45;1.30;;;0.90;;
48002;SDS011;33768;48.578;11.574;2023-03-24T18:19:50;1.03;;;0.93;;
48002;SDS011;33768;48.578;11.574;2023-03-24T18:22:54;2.00;;;1.23;;
48002;SDS011;33768;48.578;11.574;2023-03-24T18:25:58;1.50;;;1.00;;
48002;SDS011;33768;48.578;11.574;2023-03-24T18:29:04;1.33;;;0.83;;
48002;SDS011;33768;48.578;11.574;2023-03-24T18:32:08;2.07;;;1.17;;
48002;SDS011;33768;48.578;11.574;2023-03-24T18:35:12;1.70;;;1.00;;
48002;SDS011;33768;48.578;11.574;2023-03-24T18:38:19;1.20;;;1.00;;
48002;SDS011;33768;48.578;11.574;2023-03-24T18:41:25;1.30;;;1.03;;
48002;SDS011;33768;48.578;11.574;2023-03-24T18:44:30;1.43;;;0.83;;
48002;SDS011;33768;48.578;11.574;2023-03-24T18:47:34;1.53;;;0.83;;
48002;SDS011;33768;48.578;11.574;2023-03-24T18:50:39;1.00;;;0.93;;
48002;SDS011;33768;48.578;11.574;2023-03-24T18:53:43;2.23;;;1.10;;
48002;SDS011;33768;48.578;11.574;2023-03-24T18:56:47;1.30;;;1.00;;
48002;SDS011;33768;48.578;11.574;2023-03-24T18:59:51;2.80;;;1.20;;
48002;SDS011;33768;48.578;11.574;2023-03-24T19:02:56;1.10;;;0.90;;
48002;SDS011;33768;48.578;11.574;2023-03-24T19:06:00;2.77;;;0.93;;
48002;SDS011;33768;48.578;11.574;2023-03-24T19:09:09;3.47;;;1.17;;
48002;SDS011;33768;48.578;11.574;2023-03-24T19:12:15;1.23;;;0.93;;
48002;SDS011;33768;48.578;11.574;2023-03-24T19:15:19;1.07;;;0.90;;
48002;SDS011;33768;48.578;11.574;2023-03-24T19:18:24;1.10;;;0.87;;
48002;SDS011;33768;48.578;11.574;2023-03-24T19:21:29;2.10;;;1.10;;
48002;SDS011;33768;48.578;11.574;2023-03-24T19:24:33;1.73;;;0.90;;
48002;SDS011;33768;48.578;11.574;2023-03-24T19:27:37;1.57;;;1.00;;
48002;SDS011;33768;48.578;11.574;2023-03-24T19:30:41;1.73;;;1.23;;
48002;SDS011;33768;48.578;11.574;2023-03-24T19:33:45;4.17;;;1.10;;
48002;SDS011;33768;48.578;11.574;2023-03-24T19:36:50;1.83;;;1.13;;
48002;SDS011;33768;48.578;11.574;2023-03-24T19:39:54;1.43;;;1.17;;
48002;SDS011;33768;48.578;11.574;2023-03-24T19:42:58;1.40;;;1.07;;
48002;SDS011;33768;48.578;11.574;2023-03-24T19:46:03;2.33;;;1.30;;
48002;SDS011;33768;48.578;11.574;2023-03-24T19:49:08;1.90;;;1.67;;
48002;SDS011;33768;48.578;11.574;2023-03-24T19:52:12;2.93;;;1.93;;
48002;SDS011;33768;48.578;11.574;2023-03-24T19:55:16;2.43;;;1.70;;
48002;SDS011;33768;48.578;11.574;2023-03-24T19:58:20;1.70;;;1.23;;
48002;SDS011;33768;48.578;11.574;2023-03-24T20:01:25;1.70;;;1.40;;
48002;SDS011;33768;48.578;11.574;2023-03-24T20:04:29;1.80;;;1.50;;
48002;SDS011;33768;48.578;11.574;2023-03-24T20:07:33;2.67;;;1.30;;
48002;SDS011;33768;48.578;11.574;2023-03-24T20:10:37;2.13;;;1.30;;
48002;SDS011;33768;48.578;11.574;2023-03-24T20:13:42;3.73;;;1.47;;
48002;SDS011;33768;48.578;11.574;2023-03-24T20:16:47;2.07;;;1.50;;
48002;SDS011;33768;48.578;11.574;2023-03-24T20:19:51;1.57;;;1.23;;
48002;SDS011;33768;48.578;11.574;2023-03-24T20:22:56;2.40;;;1.30;;
48002;SDS011;33768;48.578;11.574;2023-03-24T20:26:01;6.50;;;1.30;;
48002;SDS011;33768;48.578;11.574;2023-03-24T20:29:05;1.47;;;1.20;;
48002;SDS011;33768;48.578;11.574;2023-03-24T20:32:09;2.50;;;1.20;;
48002;SDS011;33768;48.578;11.574;2023-03-24T20:35:13;1.67;;;1.23;;
48002;SDS011;33768;48.578;11.574;2023-03-24T20:38:17;1.37;;;1.27;;
48002;SDS011;33768;48.578;11.574;2023-03-24T20:41:21;1.43;;;0.97;;
48002;SDS011;33768;48.578;11.574;2023-03-24T20:44:25;1.57;;;0.80;;
48002;SDS011;33768;48.578;11.574;2023-03-24T20:47:30;2.13;;;1.20;;
48002;SDS011;33768;48.578;11.574;2023-03-24T20:50:34;3.60;;;1.33;;
48002;SDS011;33768;48.578;11.574;2023-03-24T20:53:39;1.77;;;1.13;;
48002;SDS011;33768;48.578;11.574;2023-03-24T20:56:43;1.57;;;1.17;;
48002;SDS011;33768;48.578;11.574;2023-03-24T20:59:47;2.17;;;1.43;;
48002;SDS011;33768;48.578;11.574;2023-03-24T21:02:51;2.10;;;1.30;;
48002;SDS011;33768;48.578;11.574;2023-03-24T21:05:55;1.67;;;1.07;;